createdAt,value
2022-12-29T00:00:01.364Z,8.10
2022-12-29T00:02:31.763Z,8.10
2022-12-29T00:05:01.478Z,8.10
2022-12-29T00:07:30.218Z,8.10
2022-12-29T00:09:58.670Z,8.10
2022-12-29T00:12:47.225Z,8.00
2022-12-29T00:15:33.464Z,8.00
2022-12-29T00:18:02.839Z,8.00
2022-12-29T00:20:53.098Z,8.00
2022-12-29T00:23:40.094Z,7.90
2022-12-29T00:26:33.421Z,8.00
2022-12-29T00:29:19.884Z,7.90
2022-12-29T00:32:05.722Z,8.00
2022-12-29T00:34:51.986Z,7.90
2022-12-29T00:37:42.379Z,7.90
2022-12-29T00:40:29.011Z,7.80
2022-12-29T00:43:14.608Z,7.80
2022-12-29T00:45:43.984Z,7.80
2022-12-29T00:48:12.352Z,7.80
2022-12-29T00:50:39.999Z,7.80
2022-12-29T00:53:09.747Z,7.80
2022-12-29T00:55:39.446Z,7.80
2022-12-29T00:58:07.835Z,7.70
2022-12-29T01:00:36.531Z,7.70
2022-12-29T01:03:05.355Z,7.70
2022-12-29T01:05:38.416Z,7.70
2022-12-29T01:08:07.393Z,7.70
2022-12-29T01:10:36.484Z,7.70
2022-12-29T01:13:05.192Z,7.70
2022-12-29T01:15:34.031Z,7.70
2022-12-29T01:18:02.302Z,7.70
2022-12-29T01:20:30.914Z,7.70
2022-12-29T01:22:59.262Z,7.70
2022-12-29T01:25:27.706Z,7.70
2022-12-29T01:27:57.347Z,7.70
2022-12-29T01:30:26.126Z,7.60
2022-12-29T01:32:54.651Z,7.60
2022-12-29T01:35:23.383Z,7.60
2022-12-29T01:37:51.988Z,7.60
2022-12-29T01:40:20.827Z,7.50
2022-12-29T01:42:49.240Z,7.50
2022-12-29T01:45:20.148Z,7.50
2022-12-29T01:47:52.431Z,7.40
2022-12-29T01:50:27.303Z,7.40
2022-12-29T01:52:59.231Z,7.40
2022-12-29T01:55:29.255Z,7.40
2022-12-29T01:58:01.635Z,7.40
2022-12-29T02:00:31.710Z,7.40
2022-12-29T02:03:00.592Z,7.40
2022-12-29T02:05:35.754Z,7.40
2022-12-29T02:08:04.822Z,7.40
2022-12-29T02:10:36.715Z,7.40
2022-12-29T02:13:05.413Z,7.40
2022-12-29T02:15:46.135Z,7.40
2022-12-29T02:18:30.056Z,7.40
2022-12-29T02:21:41.268Z,7.40
2022-12-29T02:24:56.622Z,7.40
2022-12-29T02:27:53.020Z,7.50
2022-12-29T02:30:46.277Z,7.50
2022-12-29T02:33:33.751Z,7.50
2022-12-29T02:36:12.184Z,7.60
2022-12-29T02:38:51.254Z,7.50
2022-12-29T02:41:24.275Z,7.50
2022-12-29T02:44:00.693Z,7.50
2022-12-29T02:46:36.570Z,7.60
2022-12-29T02:49:10.566Z,7.60
2022-12-29T02:51:46.157Z,7.50
2022-12-29T02:54:28.908Z,7.50
2022-12-29T02:56:57.275Z,7.60
2022-12-29T02:59:26.279Z,7.50
2022-12-29T03:02:18.903Z,7.50
2022-12-29T03:05:01.927Z,7.50
2022-12-29T03:07:42.114Z,7.60
2022-12-29T03:10:21.780Z,7.50
2022-12-29T03:13:14.170Z,7.50
2022-12-29T03:16:05.208Z,7.50
2022-12-29T03:18:43.192Z,7.50
2022-12-29T03:21:15.668Z,7.50
2022-12-29T03:23:48.670Z,7.50
2022-12-29T03:26:20.642Z,7.50
2022-12-29T03:28:54.153Z,7.50
2022-12-29T03:31:25.601Z,7.50
2022-12-29T03:33:57.672Z,7.50
2022-12-29T03:36:34.985Z,7.50
2022-12-29T03:39:12.851Z,7.50
2022-12-29T03:41:45.523Z,7.50
2022-12-29T03:44:15.249Z,7.50
2022-12-29T03:46:43.859Z,7.50
2022-12-29T03:49:13.695Z,7.50
2022-12-29T03:51:42.385Z,7.50
2022-12-29T03:54:10.701Z,7.50
2022-12-29T03:56:39.373Z,7.40
2022-12-29T03:59:07.891Z,7.50
2022-12-29T04:01:36.608Z,7.50
2022-12-29T04:04:05.113Z,7.40
2022-12-29T04:06:36.270Z,7.40
2022-12-29T04:09:04.674Z,7.40
2022-12-29T04:11:33.532Z,7.40
2022-12-29T04:14:03.064Z,7.40
2022-12-29T04:16:31.708Z,7.50
2022-12-29T04:19:00.036Z,7.40
2022-12-29T04:21:28.728Z,7.40
2022-12-29T04:23:58.709Z,7.50
2022-12-29T04:26:27.536Z,7.50
2022-12-29T04:28:56.061Z,7.50
2022-12-29T04:31:25.199Z,7.50
2022-12-29T04:33:53.653Z,7.50
2022-12-29T04:36:27.799Z,7.50
2022-12-29T04:38:59.613Z,7.50
2022-12-29T04:41:28.793Z,7.50
2022-12-29T04:43:57.188Z,7.50
2022-12-29T04:46:26.190Z,7.50
2022-12-29T04:48:54.692Z,7.50
2022-12-29T04:51:23.477Z,7.50
2022-12-29T04:53:51.878Z,7.50
2022-12-29T04:56:21.927Z,7.50
2022-12-29T04:58:50.298Z,7.50
2022-12-29T05:01:19.079Z,7.50
2022-12-29T05:03:47.614Z,7.50
2022-12-29T05:06:16.218Z,7.50
2022-12-29T05:08:44.739Z,7.60
2022-12-29T05:11:13.547Z,7.60
2022-12-29T05:13:43.605Z,7.60
2022-12-29T05:16:13.045Z,7.60
2022-12-29T05:18:41.435Z,7.60
2022-12-29T05:21:10.156Z,7.60
2022-12-29T05:23:38.648Z,7.60
2022-12-29T05:26:07.585Z,7.60
2022-12-29T05:28:36.327Z,7.60
2022-12-29T05:31:06.660Z,7.60
2022-12-29T05:33:35.107Z,7.70
2022-12-29T05:36:06.650Z,7.60
2022-12-29T05:38:36.378Z,7.70
2022-12-29T05:41:05.095Z,7.70
2022-12-29T05:43:33.409Z,7.60
2022-12-29T05:46:02.346Z,7.60
2022-12-29T05:48:37.677Z,7.60
2022-12-29T05:51:07.207Z,7.70
2022-12-29T05:53:36.537Z,7.60
2022-12-29T05:56:05.547Z,7.60
2022-12-29T05:58:34.477Z,7.70
2022-12-29T06:01:03.231Z,7.70
2022-12-29T06:03:33.046Z,7.70
2022-12-29T06:06:01.939Z,7.70
2022-12-29T06:08:30.361Z,7.70
2022-12-29T06:10:59.024Z,7.60
2022-12-29T06:13:28.514Z,7.60
2022-12-29T06:15:57.182Z,7.60
2022-12-29T06:18:25.503Z,7.70
2022-12-29T06:20:55.450Z,7.60
2022-12-29T06:23:23.690Z,7.60
2022-12-29T06:25:52.345Z,7.70
2022-12-29T06:28:20.625Z,7.70
2022-12-29T06:30:49.660Z,7.60
2022-12-29T06:33:18.557Z,7.60
2022-12-29T06:35:47.771Z,7.60
2022-12-29T06:38:17.648Z,7.70
2022-12-29T06:40:46.823Z,7.70
2022-12-29T06:43:15.273Z,7.70
2022-12-29T06:45:45.239Z,7.70
2022-12-29T06:48:14.128Z,7.70
2022-12-29T06:50:43.064Z,7.70
2022-12-29T06:53:11.461Z,7.70
2022-12-29T06:55:41.659Z,7.70
2022-12-29T06:58:09.954Z,7.70
2022-12-29T07:00:38.621Z,7.80
2022-12-29T07:03:07.145Z,7.70
2022-12-29T07:05:36.164Z,7.80
2022-12-29T07:08:04.628Z,7.80
2022-12-29T07:10:33.412Z,7.80
2022-12-29T07:13:03.333Z,7.80
2022-12-29T07:15:32.184Z,7.80
2022-12-29T07:18:00.573Z,7.80
2022-12-29T07:20:29.267Z,7.80
2022-12-29T07:22:57.754Z,7.90
2022-12-29T07:25:26.467Z,7.90
2022-12-29T07:27:55.249Z,7.90
2022-12-29T07:30:25.476Z,7.90
2022-12-29T07:32:53.929Z,7.90
2022-12-29T07:35:22.720Z,8.00
2022-12-29T07:37:51.470Z,8.00
2022-12-29T07:40:20.201Z,8.00
2022-12-29T07:42:48.571Z,8.00
2022-12-29T07:45:17.349Z,8.10
2022-12-29T07:47:50.087Z,8.10
2022-12-29T07:50:18.941Z,8.00
2022-12-29T07:52:48.871Z,8.00
2022-12-29T07:55:18.009Z,8.00
2022-12-29T07:57:46.483Z,8.00
2022-12-29T08:00:16.563Z,7.90
2022-12-29T08:02:46.296Z,7.90
2022-12-29T08:05:16.616Z,7.90
2022-12-29T08:07:45.136Z,7.80
2022-12-29T08:10:14.150Z,7.80
2022-12-29T08:12:43.470Z,7.80
2022-12-29T08:15:13.626Z,7.90
2022-12-29T08:17:42.179Z,7.90
2022-12-29T08:20:13.014Z,8.00
2022-12-29T08:22:41.875Z,8.10
2022-12-29T08:25:10.918Z,8.10
2022-12-29T08:27:40.892Z,8.20
2022-12-29T08:30:10.974Z,8.30
2022-12-29T08:32:39.384Z,8.40
2022-12-29T08:35:08.731Z,8.40
2022-12-29T08:37:38.713Z,8.60
2022-12-29T08:40:08.871Z,8.60
2022-12-29T08:42:37.651Z,8.60
2022-12-29T08:45:07.768Z,8.70
2022-12-29T08:47:36.331Z,8.70
2022-12-29T08:50:05.688Z,8.80
2022-12-29T08:52:34.131Z,8.80
2022-12-29T08:55:04.317Z,8.80
2022-12-29T08:57:32.946Z,8.90
2022-12-29T09:00:01.706Z,8.90
2022-12-29T09:02:30.752Z,9.00
2022-12-29T09:05:00.157Z,9.00
2022-12-29T09:07:28.707Z,9.00
2022-12-29T09:09:57.587Z,9.10
2022-12-29T09:12:32.941Z,9.10
2022-12-29T09:15:05.598Z,9.10
2022-12-29T09:17:43.290Z,9.10
2022-12-29T09:20:12.344Z,9.10
2022-12-29T09:22:40.880Z,9.20
2022-12-29T09:25:10.744Z,9.30
2022-12-29T09:27:41.313Z,9.30
2022-12-29T09:30:13.221Z,9.30
2022-12-29T09:32:45.121Z,9.30
2022-12-29T09:35:15.493Z,9.30
2022-12-29T09:37:44.184Z,9.30
2022-12-29T09:40:26.495Z,9.30
2022-12-29T09:43:09.405Z,9.30
2022-12-29T09:45:45.812Z,9.30
2022-12-29T09:48:19.673Z,9.30
2022-12-29T09:50:52.996Z,9.30
2022-12-29T09:53:28.227Z,9.40
2022-12-29T09:55:59.876Z,9.40
2022-12-29T09:58:36.672Z,9.40
2022-12-29T10:01:07.870Z,9.40
2022-12-29T10:03:48.891Z,9.40
2022-12-29T10:06:24.520Z,9.50
2022-12-29T10:08:59.760Z,9.50
2022-12-29T10:11:42.760Z,9.50
2022-12-29T10:14:29.446Z,9.50
2022-12-29T10:17:07.526Z,9.60
2022-12-29T10:19:57.639Z,9.60
2022-12-29T10:22:40.451Z,9.60
2022-12-29T10:25:17.148Z,9.70
2022-12-29T10:27:49.113Z,9.70
2022-12-29T10:30:19.738Z,9.70
2022-12-29T10:32:54.900Z,9.70
2022-12-29T10:35:25.244Z,9.80
2022-12-29T10:38:00.558Z,9.70
2022-12-29T10:40:34.967Z,9.70
2022-12-29T10:43:08.269Z,9.70
2022-12-29T10:45:38.403Z,9.70
2022-12-29T10:48:15.091Z,9.70
2022-12-29T10:50:44.291Z,9.70
2022-12-29T10:53:21.352Z,9.80
2022-12-29T10:55:50.371Z,9.80
2022-12-29T10:58:20.499Z,9.70
2022-12-29T11:00:54.684Z,9.80
2022-12-29T11:03:53.796Z,9.80
2022-12-29T11:06:27.204Z,9.80
2022-12-29T11:09:00.088Z,9.90
2022-12-29T11:11:35.175Z,9.90
2022-12-29T11:14:13.690Z,9.90
2022-12-29T11:16:45.847Z,10.00
2022-12-29T11:19:24.227Z,10.10
2022-12-29T11:21:53.276Z,10.10
2022-12-29T11:24:25.395Z,10.10
2022-12-29T11:26:58.413Z,10.10
2022-12-29T11:29:30.235Z,10.10
2022-12-29T11:32:01.223Z,10.10
2022-12-29T11:34:34.963Z,10.10
2022-12-29T11:37:07.305Z,10.10
2022-12-29T11:39:41.508Z,10.10
2022-12-29T11:42:17.559Z,10.10
2022-12-29T11:44:48.697Z,10.10
2022-12-29T11:47:29.024Z,10.10
2022-12-29T11:50:01.133Z,10.10
2022-12-29T11:52:34.218Z,10.00
2022-12-29T11:55:05.386Z,10.00
2022-12-29T11:57:36.773Z,10.00
2022-12-29T12:00:18.455Z,10.00
2022-12-29T12:03:00.923Z,9.90
2022-12-29T12:05:38.658Z,9.90
2022-12-29T12:08:18.941Z,9.90
2022-12-29T12:10:57.637Z,9.90
2022-12-29T12:13:32.880Z,9.80
2022-12-29T12:16:07.685Z,9.90
2022-12-29T12:18:49.973Z,9.80
2022-12-29T12:21:28.033Z,9.70
2022-12-29T12:24:11.759Z,9.70
2022-12-29T12:26:49.942Z,9.60
2022-12-29T12:29:24.796Z,9.60
2022-12-29T12:31:59.363Z,9.60
2022-12-29T12:34:36.087Z,9.60
2022-12-29T12:37:29.521Z,9.60
2022-12-29T12:40:21.806Z,9.60
2022-12-29T12:42:57.816Z,9.60
2022-12-29T12:45:39.637Z,9.60
2022-12-29T12:48:22.643Z,9.60
2022-12-29T12:50:59.846Z,9.60
2022-12-29T12:53:39.971Z,9.60
2022-12-29T12:56:34.274Z,9.60
2022-12-29T12:59:13.551Z,9.60
2022-12-29T13:01:55.520Z,9.60
2022-12-29T13:05:12.129Z,9.60
2022-12-29T13:07:54.003Z,9.60
2022-12-29T13:10:38.356Z,9.70
2022-12-29T13:13:40.482Z,9.70
2022-12-29T13:16:16.793Z,9.70
2022-12-29T13:18:54.907Z,9.70
2022-12-29T13:21:36.135Z,9.70
2022-12-29T13:24:14.890Z,9.70
2022-12-29T13:26:48.081Z,9.70
2022-12-29T13:29:23.212Z,9.70
2022-12-29T13:31:57.795Z,9.70
2022-12-29T13:34:37.650Z,9.60
2022-12-29T13:37:12.047Z,9.60
2022-12-29T13:39:45.182Z,9.60
2022-12-29T13:42:14.937Z,9.60
2022-12-29T13:44:48.733Z,9.60
2022-12-29T13:47:27.352Z,9.50
2022-12-29T13:49:58.794Z,9.50
2022-12-29T13:52:34.531Z,9.50
2022-12-29T13:55:19.714Z,9.50
2022-12-29T13:57:53.491Z,9.40
2022-12-29T14:00:23.224Z,9.40
2022-12-29T14:03:28.283Z,9.40
2022-12-29T14:06:17.315Z,9.30
2022-12-29T14:08:46.941Z,9.30
2022-12-29T14:11:19.872Z,9.30
2022-12-29T14:13:49.891Z,9.20
2022-12-29T14:16:33.180Z,9.20
2022-12-29T14:19:15.234Z,9.20
2022-12-29T14:21:52.043Z,9.10
2022-12-29T14:24:47.984Z,9.10
2022-12-29T14:27:55.696Z,9.00
2022-12-29T14:31:00.642Z,9.00
2022-12-29T14:33:32.165Z,9.00
2022-12-29T14:36:22.736Z,8.90
2022-12-29T14:38:51.466Z,8.90
2022-12-29T14:41:34.244Z,8.90
2022-12-29T14:44:18.568Z,8.90
2022-12-29T14:46:56.780Z,8.80
2022-12-29T14:49:27.723Z,8.80
2022-12-29T14:52:06.480Z,8.80
2022-12-29T14:54:56.261Z,8.90
2022-12-29T14:57:33.172Z,8.90
2022-12-29T15:00:19.668Z,8.90
2022-12-29T15:02:51.888Z,9.00
2022-12-29T15:05:35.834Z,9.00
2022-12-29T15:08:05.668Z,9.00
2022-12-29T15:10:42.787Z,9.00
2022-12-29T15:13:18.935Z,9.10
2022-12-29T15:15:48.713Z,9.10
2022-12-29T15:18:25.737Z,9.20
2022-12-29T15:20:57.849Z,9.20
2022-12-29T15:23:27.274Z,9.20
2022-12-29T15:25:58.122Z,9.40
2022-12-29T15:28:28.171Z,9.40
2022-12-29T15:31:03.366Z,9.50
2022-12-29T15:33:32.991Z,9.60
2022-12-29T15:36:12.023Z,9.60
2022-12-29T15:38:40.959Z,9.60
2022-12-29T15:41:25.459Z,9.60
2022-12-29T15:44:03.878Z,9.50
2022-12-29T15:46:34.298Z,9.50
2022-12-29T15:49:08.078Z,9.50
2022-12-29T15:51:39.192Z,9.50
2022-12-29T15:54:09.120Z,9.60
2022-12-29T15:56:37.649Z,9.60
2022-12-29T15:59:06.282Z,9.60
2022-12-29T16:01:38.272Z,9.60
2022-12-29T16:04:08.842Z,9.60
2022-12-29T16:06:38.594Z,9.60
2022-12-29T16:09:09.220Z,9.60
2022-12-29T16:11:40.709Z,9.60
2022-12-29T16:14:12.539Z,9.50
2022-12-29T16:16:45.694Z,9.50
2022-12-29T16:19:17.874Z,9.50
2022-12-29T16:21:47.851Z,9.40
2022-12-29T16:24:18.726Z,9.50
2022-12-29T16:26:51.869Z,9.40
2022-12-29T16:29:23.300Z,9.30
2022-12-29T16:32:01.517Z,9.40
2022-12-29T16:34:33.154Z,9.40
2022-12-29T16:37:03.840Z,9.40
2022-12-29T16:39:37.230Z,9.50
2022-12-29T16:42:37.459Z,9.50
2022-12-29T16:45:46.855Z,9.50
2022-12-29T16:48:22.072Z,9.60
2022-12-29T16:50:51.739Z,9.60
2022-12-29T16:53:23.811Z,9.60
2022-12-29T16:55:54.294Z,9.60
2022-12-29T16:58:25.617Z,9.60
2022-12-29T17:00:58.000Z,9.70
2022-12-29T17:03:37.004Z,9.60
2022-12-29T17:06:05.895Z,9.60
2022-12-29T17:08:42.364Z,9.60
2022-12-29T17:11:41.515Z,9.60
2022-12-29T17:14:40.553Z,9.50
2022-12-29T17:17:16.253Z,9.50
2022-12-29T17:19:49.523Z,9.50
2022-12-29T17:22:21.805Z,9.40
2022-12-29T17:24:50.264Z,9.40
2022-12-29T17:27:29.496Z,9.50
2022-12-29T17:30:01.228Z,9.40
2022-12-29T17:32:30.547Z,9.50
2022-12-29T17:35:00.512Z,9.50
2022-12-29T17:37:35.071Z,9.40
2022-12-29T17:40:05.510Z,9.50
2022-12-29T17:42:36.926Z,9.50
2022-12-29T17:45:05.999Z,9.40
2022-12-29T17:47:34.933Z,9.40
2022-12-29T17:50:05.321Z,9.30
2022-12-29T17:52:34.474Z,9.20
2022-12-29T17:55:02.912Z,9.20
2022-12-29T17:57:31.648Z,9.10
2022-12-29T17:59:59.914Z,9.10
2022-12-29T18:02:31.602Z,9.10
2022-12-29T18:05:00.753Z,9.00
2022-12-29T18:07:35.836Z,9.00
2022-12-29T18:10:05.142Z,9.00
2022-12-29T18:12:39.832Z,9.00
2022-12-29T18:15:14.659Z,9.00
2022-12-29T18:17:42.970Z,9.00
2022-12-29T18:20:11.717Z,9.00
2022-12-29T18:22:41.545Z,9.00
2022-12-29T18:25:25.172Z,9.00
2022-12-29T18:27:53.484Z,9.00
2022-12-29T18:30:22.052Z,8.90
2022-12-29T18:32:50.584Z,8.90
2022-12-29T18:35:24.114Z,8.90
2022-12-29T18:37:53.859Z,8.90
2022-12-29T18:40:22.531Z,8.90
2022-12-29T18:42:50.957Z,8.90
2022-12-29T18:45:21.754Z,8.90
2022-12-29T18:47:50.346Z,9.00
2022-12-29T18:50:19.762Z,8.80
2022-12-29T18:52:48.316Z,8.80
2022-12-29T18:55:20.973Z,8.80
2022-12-29T18:57:49.591Z,8.80
2022-12-29T19:00:20.435Z,8.80
2022-12-29T19:02:49.419Z,8.80
2022-12-29T19:05:24.236Z,8.80
2022-12-29T19:07:53.458Z,8.70
2022-12-29T19:10:25.476Z,8.70
2022-12-29T19:12:54.589Z,8.70
2022-12-29T19:15:25.860Z,8.70
2022-12-29T19:18:41.257Z,8.60
2022-12-29T19:20:45.085Z,8.60
2022-12-29T19:23:15.135Z,8.60
2022-12-29T19:25:46.267Z,8.60
2022-12-29T19:28:19.471Z,8.60
2022-12-29T19:30:52.140Z,8.60
2022-12-29T19:33:21.566Z,8.60
2022-12-29T19:35:51.520Z,8.60
2022-12-29T19:38:20.993Z,8.60
2022-12-29T19:40:52.599Z,8.60
2022-12-29T19:43:22.277Z,8.60
2022-12-29T19:45:51.527Z,8.70
2022-12-29T19:48:21.656Z,8.70
2022-12-29T19:50:51.001Z,8.80
2022-12-29T19:53:19.962Z,8.80
2022-12-29T19:55:48.853Z,8.80
2022-12-29T19:58:19.072Z,8.90
2022-12-29T20:00:49.381Z,8.90
2022-12-29T20:03:19.255Z,8.90
2022-12-29T20:05:49.955Z,8.90
2022-12-29T20:08:18.327Z,8.90
2022-12-29T20:10:47.017Z,8.90
2022-12-29T20:13:15.454Z,8.90
2022-12-29T20:15:46.160Z,8.80
2022-12-29T20:18:15.127Z,8.80
2022-12-29T20:20:44.197Z,8.80
2022-12-29T20:23:12.761Z,8.70
2022-12-29T20:25:45.543Z,8.70
2022-12-29T20:28:16.831Z,8.70
2022-12-29T20:30:54.542Z,8.70
2022-12-29T20:33:23.521Z,8.60
2022-12-29T20:35:52.382Z,8.60
2022-12-29T20:38:21.018Z,8.50
2022-12-29T20:40:49.600Z,8.50
2022-12-29T20:43:18.375Z,8.50
2022-12-29T20:45:50.478Z,8.40
2022-12-29T20:48:18.826Z,8.40
2022-12-29T20:50:47.392Z,8.50
2022-12-29T20:53:15.763Z,8.50
2022-12-29T20:55:44.621Z,8.60
2022-12-29T20:58:23.451Z,8.80
2022-12-29T21:00:54.464Z,8.90
2022-12-29T21:03:23.035Z,9.10
2022-12-29T21:05:53.942Z,9.30
2022-12-29T21:08:22.542Z,9.50
2022-12-29T21:10:52.105Z,9.70
2022-12-29T21:13:21.221Z,9.90
2022-12-29T21:15:50.764Z,10.10
2022-12-29T21:18:20.460Z,10.30
2022-12-29T21:20:57.282Z,10.40
2022-12-29T21:23:25.930Z,10.50
2022-12-29T21:25:54.963Z,10.70
2022-12-29T21:28:24.989Z,10.70
2022-12-29T21:30:54.169Z,10.70
2022-12-29T21:33:24.180Z,10.80
2022-12-29T21:35:52.862Z,10.80
2022-12-29T21:38:21.602Z,10.80
2022-12-29T21:40:50.313Z,10.80
2022-12-29T21:43:18.699Z,10.80
2022-12-29T21:45:50.233Z,10.70
2022-12-29T21:48:23.973Z,10.60
2022-12-29T21:51:14.716Z,10.60
2022-12-29T21:53:45.440Z,10.50
2022-12-29T21:56:16.631Z,10.50
2022-12-29T21:59:04.166Z,10.40
2022-12-29T22:01:52.470Z,10.40
2022-12-29T22:04:41.634Z,10.40
2022-12-29T22:07:31.381Z,10.40
2022-12-29T22:10:17.297Z,10.40
2022-12-29T22:13:01.982Z,10.50
2022-12-29T22:15:32.932Z,10.50
2022-12-29T22:18:03.000Z,10.50
2022-12-29T22:20:34.856Z,10.50
2022-12-29T22:23:05.362Z,10.50
2022-12-29T22:25:34.293Z,10.50
2022-12-29T22:28:03.040Z,10.50
2022-12-29T22:30:31.477Z,10.50
2022-12-29T22:33:01.715Z,10.40
2022-12-29T22:35:31.209Z,10.50
2022-12-29T22:38:00.362Z,10.50
2022-12-29T22:40:30.866Z,10.50
2022-12-29T22:43:00.158Z,10.50
2022-12-29T22:45:28.857Z,10.50
2022-12-29T22:47:57.989Z,10.50
2022-12-29T22:50:26.509Z,10.50
2022-12-29T22:52:56.513Z,10.50
2022-12-29T22:55:25.091Z,10.50
2022-12-29T22:57:55.402Z,10.50
2022-12-29T23:00:24.312Z,10.50
2022-12-29T23:02:53.250Z,10.50
2022-12-29T23:05:22.117Z,10.50
2022-12-29T23:07:51.172Z,10.50
2022-12-29T23:10:20.084Z,10.50
2022-12-29T23:12:48.915Z,10.50
2022-12-29T23:15:19.043Z,10.50
2022-12-29T23:17:48.007Z,10.40
2022-12-29T23:20:16.483Z,10.40
2022-12-29T23:22:45.452Z,10.40
2022-12-29T23:25:14.118Z,10.40
2022-12-29T23:27:42.805Z,10.40
2022-12-29T23:30:11.931Z,10.30
2022-12-29T23:32:42.366Z,10.30
2022-12-29T23:35:11.857Z,10.40
2022-12-29T23:37:41.245Z,10.40
2022-12-29T23:40:10.860Z,10.40
2022-12-29T23:42:39.708Z,10.40
2022-12-29T23:45:09.372Z,10.40
2022-12-29T23:47:38.428Z,10.40
2022-12-29T23:50:10.128Z,10.40
2022-12-29T23:52:39.055Z,10.30
2022-12-29T23:55:09.159Z,10.30
2022-12-29T23:57:38.243Z,10.30
